createdAt,value
2019-05-01T00:01:53.014Z,72.16
2019-05-01T00:04:54.484Z,71.79
2019-05-01T00:07:27.001Z,71.12
2019-05-01T00:09:53.664Z,71.48
2019-05-01T00:12:20.606Z,71.34
2019-05-01T00:14:47.458Z,71.14
2019-05-01T00:17:14.244Z,71.21
2019-05-01T00:19:41.011Z,71.13
2019-05-01T00:22:07.790Z,71.72
2019-05-01T00:24:34.554Z,71.22
2019-05-01T00:27:01.136Z,70.95
2019-05-01T00:29:28.023Z,70.75
2019-05-01T00:31:54.893Z,70.76
2019-05-01T00:34:21.625Z,70.28
2019-05-01T00:36:48.482Z,70.33
2019-05-01T00:39:15.448Z,70.70
2019-05-01T00:41:42.029Z,70.85
2019-05-01T00:44:08.790Z,70.83
2019-05-01T00:46:35.485Z,71.98
2019-05-01T00:49:02.204Z,72.42
2019-05-01T00:51:28.905Z,74.57
2019-05-01T00:53:55.669Z,75.27
2019-05-01T00:56:29.209Z,74.90
2019-05-01T00:59:15.640Z,74.28
2019-05-01T01:01:57.300Z,73.62
2019-05-01T01:04:24.002Z,73.71
2019-05-01T01:06:50.871Z,72.97
2019-05-01T01:09:17.739Z,73.21
2019-05-01T01:11:44.526Z,73.80
2019-05-01T01:14:11.205Z,73.80
2019-05-01T01:16:37.996Z,73.62
2019-05-01T01:19:04.785Z,73.88
2019-05-01T01:21:31.572Z,74.02
2019-05-01T01:23:58.324Z,73.89
2019-05-01T01:26:25.092Z,73.89
2019-05-01T01:28:51.873Z,73.29
2019-05-01T01:31:18.640Z,72.94
2019-05-01T01:33:45.443Z,72.58
2019-05-01T01:36:12.241Z,72.84
2019-05-01T01:38:38.991Z,73.02
2019-05-01T01:41:05.845Z,73.36
2019-05-01T01:43:46.978Z,73.11
2019-05-01T01:46:15.577Z,73.45
2019-05-01T01:48:42.426Z,73.80
2019-05-01T01:51:09.194Z,73.77
2019-05-01T01:53:36.104Z,74.02
2019-05-01T01:56:02.854Z,74.40
2019-05-01T01:58:29.924Z,74.73
2019-05-01T02:01:16.668Z,75.42
2019-05-01T02:03:46.598Z,75.57
2019-05-01T02:06:13.468Z,75.91
2019-05-01T02:08:40.234Z,76.52
2019-05-01T02:11:07.129Z,77.03
2019-05-01T02:13:33.909Z,77.35
2019-05-01T02:16:00.655Z,77.74
2019-05-01T02:18:27.422Z,78.48
2019-05-01T02:20:54.072Z,79.02
2019-05-01T02:23:20.855Z,79.00
2019-05-01T02:25:47.611Z,79.32
2019-05-01T02:28:34.244Z,79.51
2019-05-01T02:31:28.407Z,79.71
2019-05-01T02:33:48.338Z,79.55
2019-05-01T02:36:36.448Z,79.72
2019-05-01T02:39:07.508Z,79.60
2019-05-01T02:41:41.319Z,79.83
2019-05-01T02:44:30.103Z,79.81
2019-05-01T02:47:00.286Z,79.56
2019-05-01T02:49:34.271Z,79.24
2019-05-01T02:52:03.152Z,79.12
2019-05-01T02:54:30.805Z,79.21
2019-05-01T02:57:03.961Z,79.89
2019-05-01T02:59:32.632Z,80.24
2019-05-01T03:02:01.407Z,80.43
2019-05-01T03:04:28.391Z,80.48
2019-05-01T03:06:55.234Z,80.80
2019-05-01T03:09:22.537Z,80.97
2019-05-01T03:11:52.598Z,81.31
2019-05-01T03:14:22.987Z,81.62
2019-05-01T03:16:53.027Z,82.19
2019-05-01T03:19:42.480Z,82.02
2019-05-01T03:22:30.945Z,81.92
2019-05-01T03:24:58.143Z,82.10
2019-05-01T03:27:25.112Z,82.37
2019-05-01T03:29:51.917Z,82.11
2019-05-01T03:32:19.904Z,82.01
2019-05-01T03:34:52.296Z,82.11
2019-05-01T03:37:15.868Z,81.89
2019-05-01T03:39:43.056Z,81.98
2019-05-01T03:42:10.082Z,82.58
2019-05-01T03:44:36.940Z,82.94
2019-05-01T03:47:03.696Z,83.30
2019-05-01T03:49:30.458Z,83.81
2019-05-01T03:51:57.260Z,84.09
2019-05-01T03:54:24.239Z,84.32
2019-05-01T03:56:51.031Z,84.09
2019-05-01T03:59:18.832Z,83.99
2019-05-01T04:02:33.900Z,83.54
2019-05-01T04:04:58.975Z,83.01
2019-05-01T04:07:26.016Z,83.01
2019-05-01T04:09:52.998Z,83.60
2019-05-01T04:12:19.845Z,84.25
2019-05-01T04:14:47.618Z,84.60
2019-05-01T04:17:23.826Z,84.68
2019-05-01T04:19:50.589Z,84.10
2019-05-01T04:22:17.439Z,83.67
2019-05-01T04:24:44.208Z,83.29
2019-05-01T04:27:16.525Z,82.96
2019-05-01T04:29:53.111Z,82.88
2019-05-01T04:32:22.639Z,82.91
2019-05-01T04:35:21.887Z,82.30
2019-05-01T04:37:48.869Z,81.61
2019-05-01T04:40:18.731Z,80.73
2019-05-01T04:42:45.419Z,80.42
2019-05-01T04:45:12.201Z,79.86
2019-05-01T04:47:38.954Z,79.70
2019-05-01T04:50:05.802Z,79.03
2019-05-01T04:52:32.976Z,79.07
2019-05-01T04:54:59.856Z,78.80
2019-05-01T04:57:26.627Z,78.30
2019-05-01T04:59:53.398Z,77.50
2019-05-01T05:02:29.252Z,76.74
2019-05-01T05:04:56.071Z,75.81
2019-05-01T05:07:23.231Z,74.78
2019-05-01T05:09:50.608Z,75.02
2019-05-01T05:12:26.952Z,74.16
2019-05-01T05:14:58.627Z,73.32
2019-05-01T05:17:25.802Z,72.10
2019-05-01T05:19:52.647Z,70.08
2019-05-01T05:22:19.403Z,69.15
2019-05-01T05:24:46.486Z,68.35
2019-05-01T05:27:14.651Z,67.29
2019-05-01T05:29:43.866Z,65.70
2019-05-01T05:32:12.835Z,64.29
2019-05-01T05:34:41.771Z,62.74
2019-05-01T05:37:16.994Z,64.01
2019-05-01T05:39:45.730Z,63.96
2019-05-01T05:42:13.476Z,62.49
2019-05-01T05:44:40.645Z,61.71
2019-05-01T05:47:08.352Z,61.22
2019-05-01T05:49:35.427Z,62.38
2019-05-01T05:52:14.737Z,63.62
2019-05-01T05:54:55.234Z,66.03
2019-05-01T05:57:31.572Z,65.45
2019-05-01T06:00:07.830Z,66.35
2019-05-01T06:02:48.954Z,67.64
2019-05-01T06:05:38.387Z,66.85
2019-05-01T06:08:09.907Z,65.36
2019-05-01T06:10:53.539Z,64.53
2019-05-01T06:13:42.647Z,64.09
2019-05-01T06:16:17.398Z,65.49
2019-05-01T06:18:53.536Z,66.92
2019-05-01T06:21:54.685Z,66.98
2019-05-01T06:24:26.051Z,67.98
2019-05-01T06:26:52.809Z,67.24
2019-05-01T06:29:19.565Z,67.05
2019-05-01T06:31:46.549Z,66.88
2019-05-01T06:34:13.306Z,66.71
2019-05-01T06:36:44.123Z,67.16
2019-05-01T06:39:11.966Z,66.36
2019-05-01T06:41:42.936Z,66.48
2019-05-01T06:44:18.370Z,65.10
2019-05-01T06:46:51.375Z,64.16
2019-05-01T06:49:31.538Z,64.38
2019-05-01T06:51:59.736Z,62.71
2019-05-01T06:54:52.118Z,59.75
2019-05-01T06:57:16.505Z,59.29
2019-05-01T06:59:43.453Z,60.14
2019-05-01T07:02:15.978Z,59.78
2019-05-01T07:04:44.936Z,58.58
2019-05-01T07:07:24.684Z,56.08
2019-05-01T07:09:44.070Z,56.09
2019-05-01T07:12:16.923Z,59.77
2019-05-01T07:14:47.161Z,61.38
2019-05-01T07:17:13.513Z,62.51
2019-05-01T07:19:59.910Z,63.46
2019-05-01T07:22:26.674Z,63.23
2019-05-01T07:24:54.061Z,62.38
2019-05-01T07:27:23.649Z,63.16
2019-05-01T07:32:41.194Z,62.09
2019-05-01T07:35:09.136Z,60.45
2019-05-01T07:37:38.677Z,61.73
2019-05-01T07:40:06.391Z,60.29
2019-05-01T07:42:37.714Z,57.85
2019-05-01T07:45:38.943Z,49.63
2019-05-01T07:48:05.611Z,47.99
2019-05-01T07:50:32.987Z,50.91
2019-05-01T07:52:59.772Z,50.74
2019-05-01T07:55:35.943Z,41.51
2019-05-01T07:58:05.524Z,38.74
2019-05-01T08:01:22.355Z,42.08
2019-05-01T08:03:49.117Z,40.92
2019-05-01T08:06:20.854Z,33.39
2019-05-01T08:08:44.456Z,37.94
2019-05-01T08:11:11.228Z,39.34
2019-05-01T08:13:37.985Z,41.74
2019-05-01T08:16:07.234Z,41.99
2019-05-01T08:18:45.499Z,39.55
2019-05-01T08:21:26.209Z,39.14
2019-05-01T08:23:53.402Z,36.69
2019-05-01T08:26:20.074Z,39.11
2019-05-01T08:29:08.120Z,37.63
2019-05-01T08:31:50.329Z,38.92
2019-05-01T08:34:20.769Z,40.27
2019-05-01T08:36:48.461Z,40.36
2019-05-01T08:39:15.302Z,39.29
2019-05-01T08:41:42.092Z,39.69
2019-05-01T08:44:08.751Z,39.75
2019-05-01T08:46:50.856Z,40.00
2019-05-01T08:49:21.627Z,42.21
2019-05-01T08:51:48.336Z,37.60
2019-05-01T08:54:15.163Z,33.36
2019-05-01T08:56:43.674Z,32.12
2019-05-01T08:59:10.544Z,34.56
2019-05-01T09:01:37.248Z,32.05
2019-05-01T09:04:12.552Z,27.59
2019-05-01T09:06:34.776Z,33.16
2019-05-01T09:09:03.062Z,33.79
2019-05-01T09:11:31.738Z,33.80
2019-05-01T09:14:00.076Z,34.18
2019-05-01T09:16:28.398Z,30.48
2019-05-01T09:18:55.486Z,33.38
2019-05-01T09:21:22.153Z,36.29
2019-05-01T09:23:51.467Z,39.31
2019-05-01T09:26:37.380Z,37.05
2019-05-01T09:29:11.169Z,40.09
2019-05-01T09:31:36.347Z,39.74
2019-05-01T09:34:04.556Z,36.82
2019-05-01T09:36:31.515Z,36.64
2019-05-01T09:38:58.259Z,36.51
2019-05-01T09:41:37.448Z,35.50
2019-05-01T09:43:53.593Z,33.78
2019-05-01T09:46:20.367Z,29.23
2019-05-01T09:48:47.360Z,30.80
2019-05-01T09:51:33.786Z,30.26
2019-05-01T09:54:09.709Z,27.72
2019-05-01T09:56:34.507Z,31.40
2019-05-01T09:59:01.258Z,29.14
2019-05-01T10:01:31.984Z,32.55
2019-05-01T10:03:56.712Z,32.32
2019-05-01T10:06:23.474Z,35.22
2019-05-01T10:08:50.195Z,35.60
2019-05-01T10:11:16.953Z,37.24
2019-05-01T10:13:43.644Z,35.99
2019-05-01T10:16:10.408Z,36.46
2019-05-01T10:18:37.089Z,36.79
2019-05-01T10:21:03.842Z,32.49
2019-05-01T10:23:30.629Z,33.77
2019-05-01T10:25:59.211Z,33.68
2019-05-01T10:28:45.033Z,31.98
2019-05-01T10:31:24.091Z,28.98
2019-05-01T10:33:52.480Z,30.30
2019-05-01T10:36:38.692Z,33.08
2019-05-01T10:39:07.858Z,32.59
2019-05-01T10:41:34.523Z,32.85
2019-05-01T10:44:01.202Z,30.92
2019-05-01T10:46:27.966Z,30.98
2019-05-01T10:48:57.187Z,31.11
2019-05-01T10:51:23.421Z,27.29
2019-05-01T10:53:50.193Z,25.75
2019-05-01T10:56:16.957Z,27.09
2019-05-01T10:58:43.548Z,28.24
2019-05-01T11:01:19.258Z,26.51
2019-05-01T11:03:45.920Z,29.14
2019-05-01T11:06:12.678Z,30.70
2019-05-01T11:08:39.453Z,31.36
2019-05-01T11:11:06.208Z,30.34
2019-05-01T11:13:32.993Z,29.21
2019-05-01T11:15:59.656Z,29.63
2019-05-01T11:18:26.412Z,32.08
2019-05-01T11:20:53.086Z,33.93
2019-05-01T11:23:19.806Z,34.04
2019-05-01T11:25:46.610Z,29.11
2019-05-01T11:28:13.300Z,31.50
2019-05-01T11:30:39.892Z,31.81
2019-05-01T11:33:13.003Z,31.06
2019-05-01T11:36:09.638Z,31.05
2019-05-01T11:38:50.951Z,26.92
2019-05-01T11:41:30.655Z,30.85
2019-05-01T11:43:57.418Z,31.93
2019-05-01T11:46:24.010Z,28.22
2019-05-01T11:48:50.686Z,25.99
2019-05-01T11:51:17.465Z,29.65
2019-05-01T11:53:44.228Z,31.50
2019-05-01T11:56:11.018Z,30.54
2019-05-01T11:58:37.782Z,25.64
2019-05-01T12:01:05.149Z,21.69
2019-05-01T12:03:31.867Z,24.34
2019-05-01T12:05:58.667Z,25.72
2019-05-01T12:08:25.373Z,32.56
2019-05-01T12:10:52.059Z,32.57
2019-05-01T12:13:18.637Z,32.32
2019-05-01T12:15:48.531Z,30.75
2019-05-01T12:18:15.295Z,28.30
2019-05-01T12:20:42.030Z,28.86
2019-05-01T12:23:08.719Z,27.63
2019-05-01T12:25:35.399Z,27.65
2019-05-01T12:28:03.163Z,30.17
2019-05-01T12:30:29.849Z,30.47
2019-05-01T12:32:56.408Z,27.10
2019-05-01T12:35:23.210Z,27.06
2019-05-01T12:37:50.859Z,25.43
2019-05-01T12:40:19.253Z,25.11
2019-05-01T12:42:46.171Z,22.03
2019-05-01T12:45:13.773Z,28.37
2019-05-01T12:48:00.220Z,30.16
2019-05-01T12:50:27.006Z,31.73
2019-05-01T12:53:15.380Z,25.55
2019-05-01T12:56:04.427Z,28.64
2019-05-01T12:58:32.030Z,23.82
2019-05-01T13:00:58.719Z,22.33
2019-05-01T13:03:25.382Z,19.23
2019-05-01T13:05:52.061Z,19.55
2019-05-01T13:08:18.875Z,20.47
2019-05-01T13:10:45.552Z,18.81
2019-05-01T13:13:12.366Z,22.74
2019-05-01T13:15:39.144Z,22.74
2019-05-01T13:18:05.925Z,21.82
2019-05-01T13:20:32.688Z,20.73
2019-05-01T13:22:59.343Z,19.92
2019-05-01T13:25:26.134Z,19.70
2019-05-01T13:27:59.254Z,24.83
2019-05-01T13:30:35.410Z,28.80
2019-05-01T13:33:02.178Z,27.95
2019-05-01T13:35:30.537Z,26.00
2019-05-01T13:37:57.641Z,23.75
2019-05-01T13:40:24.359Z,29.46
2019-05-01T13:42:51.175Z,24.33
2019-05-01T13:45:18.047Z,24.08
2019-05-01T13:47:44.822Z,22.45
2019-05-01T13:50:11.914Z,23.39
2019-05-01T13:52:38.601Z,25.78
2019-05-01T13:55:05.604Z,24.24
2019-05-01T13:57:32.394Z,23.16
2019-05-01T13:59:59.174Z,24.81
2019-05-01T14:02:25.946Z,20.95
2019-05-01T14:04:52.701Z,18.45
2019-05-01T14:07:19.382Z,16.72
2019-05-01T14:09:46.038Z,22.37
2019-05-01T14:12:12.818Z,20.58
2019-05-01T14:14:39.587Z,23.92
2019-05-01T14:17:06.473Z,26.83
2019-05-01T14:19:34.935Z,27.43
2019-05-01T14:22:30.566Z,22.25
2019-05-01T14:24:58.422Z,19.87
2019-05-01T14:27:25.000Z,26.10
2019-05-01T14:29:51.759Z,28.43
2019-05-01T14:32:18.537Z,28.85
2019-05-01T14:34:45.290Z,24.98
2019-05-01T14:37:12.111Z,26.21
2019-05-01T14:39:39.803Z,24.33
2019-05-01T14:42:06.601Z,24.02
2019-05-01T14:44:37.021Z,26.48
2019-05-01T14:47:01.834Z,25.36
2019-05-01T14:49:28.381Z,25.89
2019-05-01T14:51:55.162Z,29.17
2019-05-01T14:54:21.718Z,27.17
2019-05-01T14:56:48.388Z,26.91
2019-05-01T14:59:15.042Z,30.38
2019-05-01T15:01:41.838Z,32.29
2019-05-01T15:04:08.527Z,30.47
2019-05-01T15:06:35.288Z,33.23
2019-05-01T15:09:04.289Z,33.44
2019-05-01T15:11:31.088Z,31.81
2019-05-01T15:14:16.058Z,28.88
2019-05-01T15:16:53.471Z,29.78
2019-05-01T15:19:22.444Z,27.35
2019-05-01T15:21:49.253Z,28.02
2019-05-01T15:24:15.969Z,30.35
2019-05-01T15:26:42.541Z,28.59
2019-05-01T15:29:09.294Z,28.45
2019-05-01T15:31:36.051Z,26.73
2019-05-01T15:34:02.826Z,27.80
2019-05-01T15:36:29.492Z,30.46
2019-05-01T15:38:56.854Z,31.55
2019-05-01T15:41:49.285Z,31.64
2019-05-01T15:44:17.609Z,31.20
2019-05-01T15:46:44.607Z,30.13
2019-05-01T15:49:11.272Z,32.28
2019-05-01T15:51:37.925Z,32.82
2019-05-01T15:54:04.702Z,33.12
2019-05-01T15:56:31.357Z,32.94
2019-05-01T15:58:58.092Z,32.30
2019-05-01T16:01:24.646Z,30.56
2019-05-01T16:03:51.325Z,34.18
2019-05-01T16:06:17.981Z,34.55
2019-05-01T16:08:44.674Z,32.40
2019-05-01T16:11:20.182Z,31.95
2019-05-01T16:13:46.851Z,33.11
2019-05-01T16:16:13.411Z,34.49
2019-05-01T16:18:40.088Z,34.41
2019-05-01T16:21:06.727Z,36.34
2019-05-01T16:23:33.520Z,37.60
2019-05-01T16:26:00.367Z,37.86
2019-05-01T16:28:27.033Z,38.84
2019-05-01T16:30:53.614Z,37.57
2019-05-01T16:33:20.386Z,39.92
2019-05-01T16:35:47.066Z,36.92
2019-05-01T16:38:23.202Z,36.19
2019-05-01T16:41:05.261Z,35.84
2019-05-01T16:43:32.039Z,36.43
2019-05-01T16:45:59.718Z,37.13
2019-05-01T16:48:26.500Z,39.69
2019-05-01T16:50:53.164Z,39.69
2019-05-01T16:53:19.979Z,38.99
2019-05-01T16:55:46.684Z,40.08
2019-05-01T16:58:15.265Z,39.22
2019-05-01T17:00:57.462Z,40.79
2019-05-01T17:03:29.114Z,40.80
2019-05-01T17:06:10.665Z,41.01
2019-05-01T17:08:46.752Z,42.33
2019-05-01T17:11:13.513Z,41.98
2019-05-01T17:13:40.394Z,43.10
2019-05-01T17:16:07.153Z,42.29
2019-05-01T17:18:33.847Z,42.69
2019-05-01T17:21:00.623Z,43.12
2019-05-01T17:23:27.183Z,44.55
2019-05-01T17:25:54.001Z,45.26
2019-05-01T17:28:20.726Z,45.05
2019-05-01T17:30:52.694Z,44.84
2019-05-01T17:33:22.044Z,44.52
2019-05-01T17:35:48.189Z,45.26
2019-05-01T17:38:14.963Z,45.64
2019-05-01T17:40:41.713Z,45.63
2019-05-01T17:43:13.389Z,45.64
2019-05-01T17:45:37.055Z,45.71
2019-05-01T17:48:04.019Z,46.12
2019-05-01T17:50:30.690Z,46.51
2019-05-01T17:52:57.382Z,46.22
2019-05-01T17:55:24.151Z,46.80
2019-05-01T17:57:50.799Z,46.65
2019-05-01T18:00:38.684Z,46.98
2019-05-01T18:03:20.675Z,47.62
2019-05-01T18:06:13.005Z,47.59
2019-05-01T18:08:39.651Z,48.38
2019-05-01T18:11:09.235Z,48.80
2019-05-01T18:13:35.130Z,48.81
2019-05-01T18:16:01.996Z,49.42
2019-05-01T18:18:28.844Z,49.54
2019-05-01T18:20:55.621Z,49.95
2019-05-01T18:23:42.763Z,50.56
2019-05-01T18:26:34.518Z,50.81
2019-05-01T18:29:07.981Z,51.19
2019-05-01T18:31:34.745Z,51.90
2019-05-01T18:34:02.961Z,52.05
2019-05-01T18:36:35.804Z,52.48
2019-05-01T18:39:34.032Z,52.51
2019-05-01T18:42:03.220Z,53.35
2019-05-01T18:44:29.997Z,53.49
2019-05-01T18:46:56.801Z,53.96
2019-05-01T18:49:23.581Z,54.41
2019-05-01T18:51:50.335Z,55.19
2019-05-01T18:54:17.119Z,55.53
2019-05-01T18:56:43.891Z,55.87
2019-05-01T18:59:10.576Z,56.37
2019-05-01T19:01:37.608Z,56.58
2019-05-01T19:04:04.359Z,56.53
2019-05-01T19:06:41.059Z,56.69
2019-05-01T19:08:59.741Z,56.75
2019-05-01T19:11:26.505Z,57.27
2019-05-01T19:13:53.261Z,57.73
2019-05-01T19:16:20.051Z,58.36
2019-05-01T19:18:46.819Z,59.21
2019-05-01T19:21:14.579Z,60.11
2019-05-01T19:23:41.325Z,60.28
2019-05-01T19:26:07.915Z,60.53
2019-05-01T19:28:34.685Z,60.99
2019-05-01T19:31:01.467Z,61.15
2019-05-01T19:33:28.580Z,61.92
2019-05-01T19:35:55.271Z,62.06
2019-05-01T19:38:22.341Z,61.86
2019-05-01T19:40:49.115Z,62.39
2019-05-01T19:43:15.886Z,62.79
2019-05-01T19:45:42.697Z,63.13
2019-05-01T19:48:09.572Z,62.97
2019-05-01T19:50:39.871Z,63.14
2019-05-01T19:53:05.089Z,63.84
2019-05-01T19:55:31.870Z,63.63
2019-05-01T19:57:59.124Z,64.25
2019-05-01T20:00:58.226Z,64.20
2019-05-01T20:03:24.960Z,63.86
2019-05-01T20:05:51.861Z,64.48
2019-05-01T20:08:18.521Z,64.85
2019-05-01T20:10:45.250Z,65.02
2019-05-01T20:13:13.300Z,66.05
2019-05-01T20:15:40.239Z,65.72
2019-05-01T20:18:06.897Z,65.48
2019-05-01T20:20:33.847Z,65.31
2019-05-01T20:23:00.499Z,64.69
2019-05-01T20:25:27.193Z,65.48
2019-05-01T20:27:53.957Z,65.52
2019-05-01T20:30:20.848Z,65.45
2019-05-01T20:32:47.614Z,65.47
2019-05-01T20:35:14.279Z,65.55
2019-05-01T20:37:40.971Z,65.31
2019-05-01T20:40:11.137Z,65.98
2019-05-01T20:42:36.618Z,65.96
2019-05-01T20:45:05.341Z,66.12
2019-05-01T20:47:35.228Z,66.16
2019-05-01T20:50:00.700Z,65.92
2019-05-01T20:52:27.368Z,66.50
2019-05-01T20:54:54.132Z,66.41
2019-05-01T20:57:26.377Z,66.08
2019-05-01T20:59:53.145Z,66.10
2019-05-01T21:02:19.842Z,66.20
2019-05-01T21:04:55.963Z,66.58
2019-05-01T21:07:29.535Z,66.90
2019-05-01T21:09:57.860Z,66.23
2019-05-01T21:12:25.205Z,66.65
2019-05-01T21:14:51.867Z,66.99
2019-05-01T21:17:18.653Z,66.89
2019-05-01T21:19:45.306Z,67.17
2019-05-01T21:22:14.100Z,67.00
2019-05-01T21:24:40.634Z,67.02
2019-05-01T21:27:07.487Z,67.70
2019-05-01T21:29:34.363Z,68.24
2019-05-01T21:32:03.343Z,67.98
2019-05-01T21:34:29.979Z,67.83
2019-05-01T21:36:56.807Z,68.00
2019-05-01T21:39:26.352Z,68.40
2019-05-01T21:41:53.273Z,68.72
2019-05-01T21:44:20.102Z,69.03
2019-05-01T21:46:46.876Z,69.09
2019-05-01T21:49:13.540Z,69.71
2019-05-01T21:51:42.290Z,70.11
2019-05-01T21:54:08.779Z,70.28
2019-05-01T21:56:36.971Z,70.68
2019-05-01T21:59:08.389Z,71.23
2019-05-01T22:01:34.872Z,71.67
2019-05-01T22:04:01.528Z,71.89
2019-05-01T22:06:28.313Z,72.09
2019-05-01T22:08:55.100Z,72.60
2019-05-01T22:11:21.843Z,72.60
2019-05-01T22:13:48.608Z,72.37
2019-05-01T22:16:26.092Z,72.73
2019-05-01T22:19:07.383Z,73.61
2019-05-01T22:21:59.402Z,73.88
2019-05-01T22:24:54.570Z,73.59
2019-05-01T22:27:25.298Z,74.08
2019-05-01T22:30:05.658Z,74.60
2019-05-01T22:32:41.513Z,74.33
2019-05-01T22:35:35.431Z,74.25
2019-05-01T22:38:04.124Z,74.13
2019-05-01T22:41:06.399Z,73.79
2019-05-01T22:43:28.306Z,74.15
2019-05-01T22:45:56.334Z,73.85
2019-05-01T22:48:23.790Z,74.48
2019-05-01T22:50:53.097Z,74.80
2019-05-01T22:53:19.718Z,75.06
2019-05-01T22:55:46.370Z,75.72
2019-05-01T22:58:13.086Z,75.76
2019-05-01T23:00:47.224Z,75.19
2019-05-01T23:03:19.693Z,75.24
2019-05-01T23:05:46.334Z,75.83
2019-05-01T23:08:13.112Z,76.57
2019-05-01T23:10:41.883Z,77.14
2019-05-01T23:13:08.591Z,77.69
2019-05-01T23:15:35.437Z,77.94
2019-05-01T23:18:02.209Z,78.00
2019-05-01T23:20:28.868Z,78.46
2019-05-01T23:22:55.629Z,78.35
2019-05-01T23:25:22.290Z,77.88
2019-05-01T23:27:48.978Z,77.83
2019-05-01T23:30:17.632Z,77.28
2019-05-01T23:32:44.460Z,76.93
2019-05-01T23:35:11.910Z,77.46
2019-05-01T23:37:38.603Z,78.08
2019-05-01T23:40:05.594Z,78.85
2019-05-01T23:42:32.368Z,79.37
2019-05-01T23:44:59.116Z,80.01
2019-05-01T23:47:25.914Z,79.42
2019-05-01T23:49:53.812Z,79.21
2019-05-01T23:52:20.761Z,78.98
2019-05-01T23:54:47.441Z,79.00
2019-05-01T23:57:14.953Z,78.95
2019-05-01T23:59:42.735Z,79.18
